createdAt,value
2017-11-22T00:00:42.848Z,22.85
2017-11-22T00:03:17.421Z,23.00
2017-11-22T00:06:09.845Z,24.40
2017-11-22T00:08:43.660Z,22.45
2017-11-22T00:11:18.641Z,24.10
2017-11-22T00:13:52.673Z,24.65
2017-11-22T00:16:26.553Z,23.38
2017-11-22T00:19:01.085Z,26.20
2017-11-22T00:21:36.220Z,24.37
2017-11-22T00:24:09.986Z,25.73
2017-11-22T00:26:45.989Z,27.85
2017-11-22T00:29:21.004Z,25.25
2017-11-22T00:35:05.372Z,21.60
2017-11-22T00:37:39.098Z,22.83
2017-11-22T00:40:13.442Z,19.95
2017-11-22T00:42:47.422Z,20.48
2017-11-22T00:48:21.247Z,21.80
2017-11-22T00:50:55.003Z,20.62
2017-11-22T00:56:45.684Z,18.60
2017-11-22T00:59:19.533Z,19.15
2017-11-22T01:01:54.419Z,18.67
2017-11-22T01:04:28.242Z,20.73
2017-11-22T01:07:03.276Z,18.52
2017-11-22T01:09:37.862Z,18.92
2017-11-22T01:12:13.849Z,18.90
2017-11-22T01:14:48.456Z,18.52
2017-11-22T01:17:29.868Z,20.10
2017-11-22T01:20:03.704Z,16.10
2017-11-22T01:25:40.372Z,15.30
2017-11-22T01:28:15.480Z,14.80
2017-11-22T01:30:53.857Z,14.07
2017-11-22T01:33:27.795Z,12.40
2017-11-22T01:36:03.725Z,14.45
2017-11-22T01:38:37.483Z,13.75
2017-11-22T01:41:17.476Z,12.85
2017-11-22T01:43:51.228Z,12.82
2017-11-22T01:46:35.113Z,12.65
2017-11-22T01:49:08.986Z,12.93
2017-11-22T01:51:54.196Z,13.23
2017-11-22T01:54:27.984Z,13.60
2017-11-22T01:57:07.907Z,13.75
2017-11-22T01:59:41.783Z,13.23
2017-11-22T02:02:16.382Z,12.80
2017-11-22T02:04:50.426Z,13.57
2017-11-22T02:07:27.060Z,14.95
2017-11-22T02:10:15.773Z,17.80
2017-11-22T02:12:49.657Z,18.30
2017-11-22T02:15:24.569Z,18.65
2017-11-22T02:17:58.360Z,17.85
2017-11-22T02:20:34.337Z,20.77
2017-11-22T02:23:08.125Z,21.25
2017-11-22T02:26:03.650Z,17.02
2017-11-22T02:28:37.462Z,20.98
2017-11-22T02:31:13.061Z,21.35
2017-11-22T02:33:47.026Z,19.83
2017-11-22T02:36:20.874Z,21.17
2017-11-22T02:38:54.681Z,19.10
2017-11-22T02:41:30.563Z,22.00
2017-11-22T02:44:04.754Z,21.85
2017-11-22T02:46:41.045Z,19.45
2017-11-22T02:49:15.638Z,20.48
2017-11-22T02:51:49.496Z,20.23
2017-11-22T02:54:23.315Z,20.20
2017-11-22T02:56:57.399Z,20.40
2017-11-22T02:59:32.168Z,17.70
2017-11-22T03:02:23.475Z,17.73
2017-11-22T03:04:57.351Z,12.73
2017-11-22T03:07:49.402Z,12.95
2017-11-22T03:10:23.229Z,13.35
2017-11-22T03:12:59.114Z,13.70
2017-11-22T03:15:32.974Z,15.80
2017-11-22T03:18:15.191Z,13.07
2017-11-22T03:20:49.120Z,11.48
2017-11-22T03:23:30.093Z,13.05
2017-11-22T03:26:03.991Z,14.55
2017-11-22T03:28:45.101Z,14.93
2017-11-22T03:31:18.908Z,11.68
2017-11-22T03:33:53.505Z,13.10
2017-11-22T03:36:34.987Z,12.90
2017-11-22T03:39:11.318Z,11.73
2017-11-22T03:41:46.985Z,13.23
2017-11-22T03:44:21.828Z,11.18
2017-11-22T03:46:55.633Z,11.02
2017-11-22T03:49:30.971Z,12.60
2017-11-22T03:52:14.390Z,12.45
2017-11-22T03:54:53.535Z,12.40
2017-11-22T03:57:27.513Z,12.77
2017-11-22T04:00:05.556Z,13.55
2017-11-22T04:02:45.753Z,11.63
2017-11-22T04:05:19.516Z,14.93
2017-11-22T04:07:55.199Z,17.00
2017-11-22T04:10:29.052Z,17.02
2017-11-22T04:13:02.866Z,21.55
2017-11-22T04:15:37.657Z,18.77
2017-11-22T04:18:11.689Z,19.95
2017-11-22T04:20:46.259Z,20.45
2017-11-22T04:23:21.129Z,16.77
2017-11-22T04:25:54.934Z,20.62
2017-11-22T04:28:28.835Z,19.65
2017-11-22T04:31:02.661Z,23.42
2017-11-22T04:33:37.349Z,23.10
2017-11-22T04:36:11.210Z,20.15
2017-11-22T04:38:46.125Z,14.02
2017-11-22T04:44:16.990Z,12.88
2017-11-22T04:46:51.636Z,14.80
2017-11-22T04:49:25.508Z,13.43
2017-11-22T04:52:00.049Z,14.98
2017-11-22T04:54:33.908Z,13.52
2017-11-22T04:57:08.686Z,14.48
2017-11-22T04:59:43.590Z,13.30
2017-11-22T05:02:18.958Z,11.18
2017-11-22T05:04:52.832Z,11.18
2017-11-22T05:07:27.369Z,12.32
2017-11-22T05:10:01.196Z,11.02
2017-11-22T05:12:36.095Z,11.30
2017-11-22T05:15:11.377Z,14.48
2017-11-22T05:17:45.231Z,14.68
2017-11-22T05:20:19.054Z,13.38
2017-11-22T05:22:52.953Z,14.23
2017-11-22T05:25:26.778Z,13.98
2017-11-22T05:28:01.221Z,13.60
2017-11-22T05:30:35.826Z,15.50
2017-11-22T05:33:09.598Z,12.20
2017-11-22T05:35:43.429Z,13.62
2017-11-22T05:38:17.159Z,14.38
2017-11-22T05:40:51.771Z,12.82
2017-11-22T05:43:28.520Z,14.20
2017-11-22T05:46:02.283Z,13.50
2017-11-22T05:48:36.798Z,16.62
2017-11-22T05:51:10.647Z,14.55
2017-11-22T05:53:46.347Z,16.95
2017-11-22T05:56:36.186Z,12.77
2017-11-22T05:59:12.037Z,14.30
2017-11-22T06:01:46.900Z,11.88
2017-11-22T06:04:21.248Z,11.85
2017-11-22T06:06:55.284Z,10.85
2017-11-22T06:09:30.315Z,14.65
2017-11-22T06:12:10.647Z,15.45
2017-11-22T06:14:51.146Z,16.42
2017-11-22T06:17:25.274Z,12.52
2017-11-22T06:19:59.146Z,15.50
2017-11-22T06:22:33.073Z,16.05
2017-11-22T06:25:08.794Z,14.70
2017-11-22T06:27:43.995Z,17.37
2017-11-22T06:30:30.633Z,15.45
2017-11-22T06:33:09.609Z,24.42
2017-11-22T06:35:47.380Z,13.13
2017-11-22T06:38:25.421Z,14.60
2017-11-22T06:41:03.067Z,12.60
2017-11-22T06:43:42.940Z,13.40
2017-11-22T06:46:25.145Z,14.38
2017-11-22T06:48:59.865Z,16.62
2017-11-22T06:51:35.900Z,14.55
2017-11-22T06:54:16.568Z,14.93
2017-11-22T06:56:50.435Z,14.98
2017-11-22T06:59:26.330Z,13.00
2017-11-22T07:02:00.036Z,16.08
2017-11-22T07:04:35.924Z,12.50
2017-11-22T07:07:13.369Z,14.25
2017-11-22T07:09:47.110Z,15.20
2017-11-22T07:12:23.845Z,15.40
2017-11-22T07:15:03.210Z,13.30
2017-11-22T07:17:36.979Z,15.90
2017-11-22T07:20:14.606Z,14.85
2017-11-22T07:22:49.771Z,14.68
2017-11-22T07:25:35.518Z,15.35
2017-11-22T07:28:09.479Z,13.90
2017-11-22T07:30:45.396Z,13.55
2017-11-22T07:33:20.018Z,13.55
2017-11-22T07:36:00.172Z,13.50
2017-11-22T07:38:36.037Z,13.32
2017-11-22T07:41:09.953Z,10.35
2017-11-22T07:43:43.695Z,15.25
2017-11-22T07:46:20.820Z,12.05
2017-11-22T07:48:54.662Z,9.75
2017-11-22T07:51:34.489Z,12.07
2017-11-22T07:54:08.412Z,10.75
2017-11-22T07:56:42.911Z,11.68
2017-11-22T07:59:16.901Z,11.18
2017-11-22T08:01:50.904Z,9.77
2017-11-22T08:04:26.033Z,10.27
2017-11-22T08:06:59.775Z,12.00
2017-11-22T08:09:34.771Z,12.82
2017-11-22T08:12:09.470Z,11.25
2017-11-22T08:14:43.325Z,11.50
2017-11-22T08:17:17.853Z,11.57
2017-11-22T08:19:53.830Z,10.35
2017-11-22T08:22:28.300Z,12.00
2017-11-22T08:25:08.140Z,13.15
2017-11-22T08:27:42.376Z,10.45
2017-11-22T08:30:20.656Z,11.25
2017-11-22T08:32:54.484Z,11.02
2017-11-22T08:35:28.370Z,11.50
2017-11-22T08:38:03.101Z,10.68
2017-11-22T08:40:37.951Z,11.32
2017-11-22T08:45:58.699Z,9.77
2017-11-22T08:48:37.792Z,10.68
2017-11-22T08:51:12.558Z,10.32
2017-11-22T08:53:48.457Z,10.90
2017-11-22T08:56:28.087Z,9.63
2017-11-22T08:59:03.895Z,12.60
2017-11-22T09:01:37.613Z,11.07
2017-11-22T09:04:13.383Z,11.50
2017-11-22T09:30:54.174Z,11.48
2017-11-22T09:33:30.666Z,12.63
2017-11-22T09:36:04.607Z,10.70
2017-11-22T09:38:39.452Z,10.25
2017-11-22T09:41:14.294Z,10.15
2017-11-22T09:43:49.246Z,10.68
2017-11-22T09:46:23.916Z,11.27
2017-11-22T09:48:58.847Z,9.90
2017-11-22T09:51:33.609Z,8.85
2017-11-22T09:54:07.658Z,10.38
2017-11-22T09:56:41.685Z,11.12
2017-11-22T09:59:16.392Z,10.55
2017-11-22T10:01:50.309Z,10.85
2017-11-22T10:04:24.469Z,11.35
2017-11-22T10:06:58.538Z,11.57
2017-11-22T10:09:33.062Z,11.27
2017-11-22T10:12:07.239Z,11.20
2017-11-22T10:14:41.048Z,11.55
2017-11-22T10:17:14.877Z,11.70
2017-11-22T10:19:54.440Z,13.48
2017-11-22T10:22:29.263Z,11.57
2017-11-22T10:25:09.992Z,10.95
2017-11-22T10:27:43.971Z,11.82
2017-11-22T10:30:18.712Z,10.68
2017-11-22T10:32:52.482Z,11.80
2017-11-22T10:35:26.458Z,9.70
2017-11-22T10:38:00.396Z,10.25
2017-11-22T10:40:36.439Z,10.40
2017-11-22T10:43:11.998Z,10.38
2017-11-22T10:45:45.870Z,9.95
2017-11-22T10:48:19.810Z,11.07
2017-11-22T10:50:53.891Z,10.20
2017-11-22T10:53:28.859Z,9.85
2017-11-22T10:56:06.726Z,9.60
2017-11-22T10:58:40.526Z,10.20
2017-11-22T11:01:16.270Z,12.55
2017-11-22T11:03:50.202Z,9.77
2017-11-22T11:06:25.900Z,11.00
2017-11-22T11:09:00.707Z,10.25
2017-11-22T11:11:34.577Z,11.73
2017-11-22T11:14:08.609Z,10.80
2017-11-22T11:16:42.521Z,11.68
2017-11-22T11:19:17.515Z,10.77
2017-11-22T11:21:52.872Z,10.23
2017-11-22T11:24:28.832Z,8.95
2017-11-22T11:27:02.772Z,11.02
2017-11-22T11:29:38.332Z,8.18
2017-11-22T11:35:16.457Z,9.52
2017-11-22T11:40:52.310Z,9.98
2017-11-22T11:43:38.700Z,11.77
2017-11-22T11:46:15.426Z,8.50
2017-11-22T11:48:53.298Z,7.68
2017-11-22T11:51:34.701Z,7.40
2017-11-22T11:54:08.534Z,8.43
2017-11-22T11:56:43.234Z,9.23
2017-11-22T11:59:20.540Z,7.78
2017-11-22T12:02:01.219Z,8.63
2017-11-22T12:04:41.636Z,4.03
2017-11-22T12:07:20.696Z,3.97
2017-11-22T12:09:54.811Z,6.10
2017-11-22T12:12:43.375Z,3.60
2017-11-22T12:15:18.301Z,5.18
2017-11-22T12:17:53.082Z,7.00
2017-11-22T12:20:32.549Z,5.40
2017-11-22T12:23:13.031Z,7.28
2017-11-22T12:25:47.180Z,8.52
2017-11-22T12:28:21.611Z,8.30
2017-11-22T12:30:56.606Z,9.80
2017-11-22T12:33:30.637Z,11.30
2017-11-22T12:49:15.945Z,12.70
2017-11-22T12:51:50.065Z,14.25
2017-11-22T12:54:26.498Z,12.93
2017-11-22T12:57:00.462Z,14.10
2017-11-22T12:59:35.546Z,12.40
2017-11-22T13:02:13.865Z,12.10
2017-11-22T13:04:47.754Z,11.35
2017-11-22T13:07:23.964Z,11.80
2017-11-22T13:10:00.643Z,14.23
2017-11-22T13:12:47.105Z,12.55
2017-11-22T13:15:30.819Z,13.45
2017-11-22T13:18:08.804Z,14.32
2017-11-22T13:20:43.529Z,12.68
2017-11-22T13:23:19.093Z,11.90
2017-11-22T13:25:52.991Z,13.52
2017-11-22T13:28:26.946Z,13.62
2017-11-22T13:31:02.852Z,12.10
2017-11-22T13:33:39.883Z,13.05
2017-11-22T13:36:16.450Z,9.60
2017-11-22T13:38:50.469Z,12.00
2017-11-22T13:41:30.869Z,10.63
2017-11-22T13:44:05.449Z,12.20
2017-11-22T13:46:43.541Z,11.93
2017-11-22T13:49:17.405Z,9.77
2017-11-22T13:51:51.223Z,11.55
2017-11-22T13:54:25.094Z,11.77
2017-11-22T13:56:58.934Z,11.00
2017-11-22T13:59:34.687Z,10.55
2017-11-22T14:02:12.555Z,9.50
2017-11-22T14:04:46.213Z,9.95
2017-11-22T14:07:20.192Z,9.98
2017-11-22T14:09:54.024Z,9.95
2017-11-22T14:12:27.991Z,8.90
2017-11-22T14:15:01.968Z,10.23
2017-11-22T14:17:37.951Z,7.85
2017-11-22T14:20:11.865Z,7.50
2017-11-22T14:22:50.974Z,8.93
2017-11-22T14:25:24.814Z,6.85
2017-11-22T14:27:59.918Z,7.40
2017-11-22T14:30:35.231Z,7.57
2017-11-22T14:33:09.162Z,7.30
2017-11-22T14:35:43.055Z,6.40
2017-11-22T14:38:17.732Z,6.75
2017-11-22T14:40:51.887Z,5.72
2017-11-22T14:43:26.317Z,5.45
2017-11-22T14:46:00.229Z,8.02
2017-11-22T14:48:34.051Z,10.73
2017-11-22T14:51:08.120Z,7.93
2017-11-22T14:53:42.071Z,8.60
2017-11-22T14:56:22.518Z,6.47
2017-11-22T14:58:56.557Z,6.20
2017-11-22T15:01:31.273Z,6.72
2017-11-22T15:04:06.186Z,6.90
2017-11-22T15:06:40.024Z,5.82
2017-11-22T15:09:14.304Z,6.70
2017-11-22T15:11:48.415Z,6.35
2017-11-22T15:14:22.661Z,7.05
2017-11-22T15:16:56.655Z,7.45
2017-11-22T15:19:31.582Z,5.65
2017-11-22T15:22:06.525Z,6.82
2017-11-22T15:24:40.538Z,6.60
2017-11-22T15:27:18.733Z,6.95
2017-11-22T15:29:53.406Z,6.50
2017-11-22T15:32:27.451Z,7.60
2017-11-22T15:35:03.640Z,6.95
2017-11-22T15:37:51.656Z,7.43
2017-11-22T15:40:32.559Z,5.43
2017-11-22T15:43:18.025Z,4.53
2017-11-22T15:46:18.913Z,6.97
2017-11-22T15:48:58.382Z,6.55
2017-11-22T15:51:37.667Z,6.97
2017-11-22T15:54:15.553Z,5.20
2017-11-22T15:56:49.777Z,12.90
2017-11-22T15:59:23.764Z,6.78
2017-11-22T16:01:57.903Z,7.05
2017-11-22T16:04:31.812Z,24.45
2017-11-22T16:07:05.769Z,7.65
2017-11-22T16:09:41.118Z,9.65
2017-11-22T16:12:15.804Z,8.25
2017-11-22T16:14:49.780Z,6.50
2017-11-22T16:17:36.875Z,7.10
2017-11-22T16:20:11.540Z,6.15
2017-11-22T16:22:45.427Z,14.95
2017-11-22T16:25:20.300Z,7.10
2017-11-22T16:27:54.212Z,6.85
2017-11-22T16:30:27.969Z,7.28
2017-11-22T16:33:05.150Z,8.18
2017-11-22T16:35:44.037Z,7.03
2017-11-22T16:38:18.592Z,8.25
2017-11-22T16:40:52.504Z,8.70
2017-11-22T16:43:27.247Z,6.15
2017-11-22T16:46:01.360Z,10.73
2017-11-22T16:51:52.488Z,5.00
2017-11-22T16:54:26.789Z,6.70
2017-11-22T16:57:04.266Z,7.95
2017-11-22T16:59:37.942Z,5.45
2017-11-22T17:02:12.405Z,4.20
2017-11-22T17:04:46.308Z,4.05
2017-11-22T17:07:20.993Z,4.55
2017-11-22T17:09:55.857Z,4.35
2017-11-22T17:12:29.822Z,7.72
2017-11-22T17:15:03.907Z,4.55
2017-11-22T17:17:38.125Z,6.10
2017-11-22T17:20:12.185Z,5.62
2017-11-22T17:22:46.114Z,5.22
2017-11-22T17:25:20.786Z,5.55
2017-11-22T17:27:57.451Z,6.55
2017-11-22T17:30:32.360Z,5.75
2017-11-22T17:33:07.312Z,6.18
2017-11-22T17:35:41.122Z,7.50
2017-11-22T17:38:15.719Z,8.63
2017-11-22T17:40:49.704Z,7.62
2017-11-22T17:43:23.547Z,8.27
2017-11-22T17:45:57.812Z,7.07
2017-11-22T17:48:31.422Z,8.25
2017-11-22T17:51:07.334Z,8.68
2017-11-22T17:53:41.180Z,9.40
2017-11-22T17:56:15.021Z,8.15
2017-11-22T17:58:49.609Z,9.63
2017-11-22T18:01:30.740Z,8.02
2017-11-22T18:04:04.731Z,10.40
2017-11-22T18:06:39.337Z,8.75
2017-11-22T18:09:13.408Z,10.90
2017-11-22T18:11:47.735Z,12.82
2017-11-22T18:14:21.814Z,9.40
2017-11-22T18:16:55.769Z,9.82
2017-11-22T18:19:30.346Z,9.55
2017-11-22T18:22:05.393Z,44.33
2017-11-22T18:24:39.088Z,11.88
2017-11-22T18:27:13.057Z,11.05
2017-11-22T18:29:47.639Z,9.75
2017-11-22T18:32:22.459Z,9.50
2017-11-22T18:34:57.190Z,11.70
2017-11-22T18:37:34.252Z,10.10
2017-11-22T18:40:08.788Z,9.85
2017-11-22T18:42:43.727Z,7.95
2017-11-22T18:45:17.591Z,9.05
2017-11-22T18:47:57.320Z,9.35
2017-11-22T18:50:31.336Z,8.90
2017-11-22T18:53:06.029Z,9.40
2017-11-22T18:55:40.069Z,6.97
2017-11-22T18:58:15.053Z,7.97
2017-11-22T19:00:49.691Z,8.50
2017-11-22T19:03:23.719Z,8.73
2017-11-22T19:05:57.718Z,9.13
2017-11-22T19:08:31.628Z,9.35
2017-11-22T19:11:07.229Z,9.05
2017-11-22T19:13:42.857Z,10.65
2017-11-22T19:16:16.759Z,10.05
2017-11-22T19:18:51.394Z,10.40
2017-11-22T19:21:26.020Z,9.85
2017-11-22T19:24:02.149Z,9.30
2017-11-22T19:26:36.316Z,10.50
2017-11-22T19:29:10.358Z,9.20
2017-11-22T19:31:45.047Z,8.13
2017-11-22T19:34:19.788Z,10.40
2017-11-22T19:36:53.541Z,9.13
2017-11-22T19:39:27.489Z,9.95
2017-11-22T19:42:01.958Z,10.60
2017-11-22T19:44:35.792Z,10.40
2017-11-22T19:47:10.599Z,10.00
2017-11-22T19:49:44.321Z,10.50
2017-11-22T19:52:18.519Z,12.90
2017-11-22T19:54:52.480Z,12.05
2017-11-22T19:57:26.252Z,10.25
2017-11-22T20:00:00.922Z,9.50
2017-11-22T20:02:34.997Z,9.00
2017-11-22T20:05:08.698Z,9.85
2017-11-22T20:07:49.166Z,9.40
2017-11-22T20:10:23.146Z,8.52
2017-11-22T20:12:57.920Z,9.38
2017-11-22T20:15:32.594Z,7.80
2017-11-22T20:18:07.081Z,6.70
2017-11-22T20:20:41.007Z,7.70
2017-11-22T20:23:14.774Z,8.38
2017-11-22T20:25:48.709Z,8.55
2017-11-22T20:28:22.571Z,8.68
2017-11-22T20:30:57.488Z,7.93
2017-11-22T20:33:31.393Z,7.28
2017-11-22T20:36:08.379Z,7.45
2017-11-22T20:38:42.271Z,6.80
2017-11-22T20:41:16.101Z,6.68
2017-11-22T20:43:50.200Z,6.05
2017-11-22T20:46:26.973Z,6.45
2017-11-22T20:49:00.798Z,5.35
2017-11-22T20:51:38.392Z,6.47
2017-11-22T20:54:12.172Z,6.80
2017-11-22T20:56:47.167Z,6.93
2017-11-22T20:59:26.190Z,5.87
2017-11-22T21:02:00.063Z,6.78
2017-11-22T21:04:36.817Z,7.30
2017-11-22T21:07:10.728Z,5.70
2017-11-22T21:09:45.768Z,7.30
2017-11-22T21:12:21.854Z,6.80
2017-11-22T21:14:55.691Z,7.20
2017-11-22T21:17:30.457Z,7.60
2017-11-22T21:20:04.553Z,7.30
2017-11-22T21:22:40.717Z,7.18
2017-11-22T21:25:14.632Z,6.65
2017-11-22T21:27:50.433Z,6.32
2017-11-22T21:30:25.201Z,5.90
2017-11-22T21:33:04.360Z,10.60
2017-11-22T21:35:39.347Z,6.93
2017-11-22T21:38:15.097Z,7.25
2017-11-22T21:40:48.928Z,6.15
2017-11-22T21:43:24.051Z,5.78
2017-11-22T21:45:58.149Z,5.00
2017-11-22T21:48:50.269Z,5.35
2017-11-22T21:51:24.915Z,7.15
2017-11-22T21:54:01.077Z,6.25
2017-11-22T21:56:35.127Z,6.25
2017-11-22T21:59:29.256Z,5.70
2017-11-22T22:02:04.508Z,7.47
2017-11-22T22:04:46.119Z,6.57
2017-11-22T22:07:20.219Z,4.87
2017-11-22T22:09:55.128Z,5.10
2017-11-22T22:12:31.250Z,5.10
2017-11-22T22:15:05.280Z,5.43
2017-11-22T22:17:45.271Z,8.68
2017-11-22T22:20:19.133Z,8.68
2017-11-22T22:23:06.695Z,6.82
2017-11-22T22:25:40.856Z,6.37
2017-11-22T22:28:16.445Z,6.05
2017-11-22T22:30:50.369Z,6.30
2017-11-22T22:33:24.067Z,6.30
2017-11-22T22:35:58.913Z,5.40
2017-11-22T22:38:33.544Z,5.50
2017-11-22T22:41:08.143Z,5.72
2017-11-22T22:43:42.866Z,5.00
2017-11-22T22:46:16.754Z,5.93
2017-11-22T22:48:52.758Z,5.28
2017-11-22T22:51:26.842Z,5.07
2017-11-22T22:54:01.002Z,6.00
2017-11-22T22:56:35.914Z,5.10
2017-11-22T22:59:16.621Z,6.10
2017-11-22T23:01:52.536Z,5.62
2017-11-22T23:04:27.313Z,5.65
2017-11-22T23:07:02.794Z,5.80
2017-11-22T23:09:37.090Z,6.07
2017-11-22T23:12:17.609Z,5.57
2017-11-22T23:14:56.404Z,6.43
2017-11-22T23:17:30.290Z,6.87
2017-11-22T23:20:13.903Z,7.53
2017-11-22T23:22:48.019Z,6.75
2017-11-22T23:25:25.119Z,7.95
2017-11-22T23:27:59.005Z,6.32
2017-11-22T23:30:38.063Z,7.47
2017-11-22T23:33:12.670Z,7.72
2017-11-22T23:35:52.739Z,7.68
2017-11-22T23:38:28.902Z,7.57
2017-11-22T23:41:02.860Z,8.13
2017-11-22T23:43:39.998Z,8.13
2017-11-22T23:46:13.906Z,8.05
2017-11-22T23:48:48.343Z,8.90
2017-11-22T23:51:24.836Z,8.30
2017-11-22T23:53:58.688Z,10.02
2017-11-22T23:56:39.589Z,9.85
2017-11-22T23:59:13.820Z,7.60
